Terminal Aerodrome Forecast
Issued by NWS

Home | Current Version | Previous Version | Text Only | Print | Product List | Glossary On
Versions: 1 2 3 4 5 6 7 8 9 10 11 12 13 14 15 16 17 18 19 20 21 22 23 24 25 26 27
000
FTUS43 KABR 181700
TAFPIR
TAF
KPIR 181723Z 1818/1918 14016G23KT P6SM SCT200
     FM182000 15025G35KT P6SM SCT200
     FM190600 20018KT P6SM BKN200
     FM191200 31010KT P6SM SKC=

USA.gov is the U.S. government's official web portal to all federal, state and local government web resources and services.